Coronel Enrique Soto Cano Air Base
MHSC : now visible

Airfield :











YOU CAN JOIN US ON...

 
LOGIN :

Register | Disclaimer

   EN    FR    IT 

 









Legend :    VFR   Marginal VFR   IFR   Intensive IFR   Very Intensive IFR
Visi :
Ceiling :
>= 8 km
>= 3000ft
5 to 8 km
1000 to 3000 ft
1500m to 5 km
500 to 1000 ft
800 to 1500m
200 to 500 ft
< 800m
< 200 ft
Symbols :   Thunderstorms  Fog  Heavy snow  Heavy precipitations  Wind > 20 kt







- Airport Elevation : 2061 ft
- IATA code : XPL


MHSC - Coronel Enrique Soto Cano Air Base

CURRENT METAR :
  • 161158Z 00000KT 9999 OVC055 21/21 A2999 RMK AO2A VIS 3000 RWY17 DZE1058 SLP114 P0000 60000 T02060206 10239 20196 53006 $

EXPIRED METARs :
  • 161059Z 00000KT 9000 BR FEW060 20/20 A2997 RMK AO2A DZE58 SLP107 $
  • 160958Z 08004KT 9999 CLR 21/21 A2996 RMK AO2A VIS 1200 RWY17 SLP101 T02080206 $

TAF TAF MHSC
Valid from the 15 at 13:00 until the 16 at 19:00 UTC


1513/1619 VRB06KT 6000 BR FEW020 SCT120 QNH3003INS
BECMG 1516/1517 02009KT 9999 NSW SCT080 BKN140 QNH2992INS
TEMPO 1521/1601 VRB10G15KT VCTS OVC060CB
BECMG 1605/1606 VRB05KT 4800 BR SCT015 BKN050 OVC130 QNH3001INS
BECMG 1615/1616 31006KT 9999 NSW FEW015 SCT080 BKN130 QNH2999INS TX32/1521Z TN21/1611Z
MHTG FIR / North America



MET'MAP, your aeronautical weather chart ! - Copyright ORBIFLY December 2007 - Disclaimer

ORBIFLY MET'MAP TEAM :

Programming & Development : Alexandra Zaïnal
Concept & Development : Baudouin d'Aumeries
Co-Development & Prog : Marc-Olivier Méhu
Technical & hardware support : Manuel Goepfert

Contact : metmap@orbifly.com




SOURCES & CREDITS :

   NOAA       Earth
Advisory